CHC weather

Christchurch International Airport
Christchurch, Canterbury Region, New Zealand

Public forecast

Using degrees Celsius for public forecast. Weather courtesy of forecast.io.

METAR (pilot weather report)

Retrieved 2019/03/20 06:30 UTC (21 minutes ago):

NZCH 200630Z AUTO 06008KT 9999 FEW013/// 17/14 Q1026 BECMG BKN014

TAF (pilot weather forecast)

Retrieved 2019/03/20 06:51 UTC (14 seconds ago):

TAF COR NZCH 200538Z 2006/2106 06015KT 9999 SCT015 BECMG 2006/2008 06005KT BKN014 PROB40 2010/2020 BKN008 BECMG 2021/2023 06015G25KT SCT020